sensor_id;sensor_type;location;lat;lon;timestamp;temperature;humidity
10644;DHT22;5370;50.132;8.626;2023-07-13T00:01:16;21.20;49.30
10644;DHT22;5370;50.132;8.626;2023-07-13T00:03:42;21.30;49.10
10644;DHT22;5370;50.132;8.626;2023-07-13T00:06:08;21.30;49.00
10644;DHT22;5370;50.132;8.626;2023-07-13T00:08:35;21.40;49.10
10644;DHT22;5370;50.132;8.626;2023-07-13T00:11:02;21.40;49.20
10644;DHT22;5370;50.132;8.626;2023-07-13T00:13:28;21.50;49.30
10644;DHT22;5370;50.132;8.626;2023-07-13T00:15:54;21.50;49.10
10644;DHT22;5370;50.132;8.626;2023-07-13T00:18:21;21.50;48.90
10644;DHT22;5370;50.132;8.626;2023-07-13T00:20:47;21.50;48.80
10644;DHT22;5370;50.132;8.626;2023-07-13T00:23:12;21.50;48.90
10644;DHT22;5370;50.132;8.626;2023-07-13T00:25:38;21.50;48.90
10644;DHT22;5370;50.132;8.626;2023-07-13T00:28:03;21.60;48.70
10644;DHT22;5370;50.132;8.626;2023-07-13T00:30:29;21.60;48.30
10644;DHT22;5370;50.132;8.626;2023-07-13T00:32:55;21.60;48.20
10644;DHT22;5370;50.132;8.626;2023-07-13T00:35:21;21.70;48.20
10644;DHT22;5370;50.132;8.626;2023-07-13T00:37:46;21.60;48.20
10644;DHT22;5370;50.132;8.626;2023-07-13T00:40:13;21.50;47.90
10644;DHT22;5370;50.132;8.626;2023-07-13T00:42:39;21.50;47.90
10644;DHT22;5370;50.132;8.626;2023-07-13T00:47:37;21.30;48.50
10644;DHT22;5370;50.132;8.626;2023-07-13T00:50:04;21.20;48.90
10644;DHT22;5370;50.132;8.626;2023-07-13T00:52:31;21.10;49.40
10644;DHT22;5370;50.132;8.626;2023-07-13T00:54:57;21.00;49.80
10644;DHT22;5370;50.132;8.626;2023-07-13T00:57:23;20.90;50.00
10644;DHT22;5370;50.132;8.626;2023-07-13T00:59:54;20.80;50.10
10644;DHT22;5370;50.132;8.626;2023-07-13T01:02:21;20.80;50.30
10644;DHT22;5370;50.132;8.626;2023-07-13T01:04:47;20.80;50.10
10644;DHT22;5370;50.132;8.626;2023-07-13T01:07:13;20.60;50.10
10644;DHT22;5370;50.132;8.626;2023-07-13T01:09:39;20.60;50.40
10644;DHT22;5370;50.132;8.626;2023-07-13T01:12:05;20.60;50.30
10644;DHT22;5370;50.132;8.626;2023-07-13T01:14:31;20.50;50.20
10644;DHT22;5370;50.132;8.626;2023-07-13T01:16:56;20.50;50.30
10644;DHT22;5370;50.132;8.626;2023-07-13T01:19:45;20.40;50.50
10644;DHT22;5370;50.132;8.626;2023-07-13T01:22:13;20.40;51.10
10644;DHT22;5370;50.132;8.626;2023-07-13T01:24:41;20.30;51.20
10644;DHT22;5370;50.132;8.626;2023-07-13T01:27:09;20.20;51.40
10644;DHT22;5370;50.132;8.626;2023-07-13T01:29:37;20.20;51.60
10644;DHT22;5370;50.132;8.626;2023-07-13T01:32:16;20.10;52.00
10644;DHT22;5370;50.132;8.626;2023-07-13T01:34:41;20.00;52.20
10644;DHT22;5370;50.132;8.626;2023-07-13T01:37:09;19.90;52.50
10644;DHT22;5370;50.132;8.626;2023-07-13T01:39:35;19.80;52.70
10644;DHT22;5370;50.132;8.626;2023-07-13T01:42:01;19.70;52.90
10644;DHT22;5370;50.132;8.626;2023-07-13T01:44:27;19.70;53.10
10644;DHT22;5370;50.132;8.626;2023-07-13T01:46:52;19.70;53.20
10644;DHT22;5370;50.132;8.626;2023-07-13T01:49:18;19.60;53.20
10644;DHT22;5370;50.132;8.626;2023-07-13T01:51:44;19.60;53.30
10644;DHT22;5370;50.132;8.626;2023-07-13T01:54:09;19.60;53.20
10644;DHT22;5370;50.132;8.626;2023-07-13T01:56:35;19.60;53.30
10644;DHT22;5370;50.132;8.626;2023-07-13T01:59:00;19.60;53.30
10644;DHT22;5370;50.132;8.626;2023-07-13T02:01:26;19.60;53.00
10644;DHT22;5370;50.132;8.626;2023-07-13T02:03:51;19.70;52.70
10644;DHT22;5370;50.132;8.626;2023-07-13T02:06:17;19.80;52.50
10644;DHT22;5370;50.132;8.626;2023-07-13T02:08:42;19.80;52.10
10644;DHT22;5370;50.132;8.626;2023-07-13T02:11:08;19.80;51.80
10644;DHT22;5370;50.132;8.626;2023-07-13T02:13:34;19.80;51.90
10644;DHT22;5370;50.132;8.626;2023-07-13T02:16:00;19.70;52.20
10644;DHT22;5370;50.132;8.626;2023-07-13T02:18:26;19.60;52.40
10644;DHT22;5370;50.132;8.626;2023-07-13T02:20:51;19.60;52.60
10644;DHT22;5370;50.132;8.626;2023-07-13T02:23:17;19.60;52.70
10644;DHT22;5370;50.132;8.626;2023-07-13T02:25:42;19.70;52.60
10644;DHT22;5370;50.132;8.626;2023-07-13T02:28:08;19.70;52.40
10644;DHT22;5370;50.132;8.626;2023-07-13T02:30:34;19.70;52.20
10644;DHT22;5370;50.132;8.626;2023-07-13T02:33:00;19.70;52.00
10644;DHT22;5370;50.132;8.626;2023-07-13T02:35:25;19.80;51.90
10644;DHT22;5370;50.132;8.626;2023-07-13T02:37:51;19.80;52.20
10644;DHT22;5370;50.132;8.626;2023-07-13T02:40:17;19.80;51.40
10644;DHT22;5370;50.132;8.626;2023-07-13T02:42:42;19.90;51.40
10644;DHT22;5370;50.132;8.626;2023-07-13T02:45:08;19.90;51.40
10644;DHT22;5370;50.132;8.626;2023-07-13T02:47:35;19.90;51.30
10644;DHT22;5370;50.132;8.626;2023-07-13T02:50:01;19.80;51.10
10644;DHT22;5370;50.132;8.626;2023-07-13T02:52:27;19.80;50.90
10644;DHT22;5370;50.132;8.626;2023-07-13T02:54:52;19.80;51.00
10644;DHT22;5370;50.132;8.626;2023-07-13T02:57:18;19.70;51.10
10644;DHT22;5370;50.132;8.626;2023-07-13T02:59:44;19.70;51.20
10644;DHT22;5370;50.132;8.626;2023-07-13T03:02:10;19.60;51.10
10644;DHT22;5370;50.132;8.626;2023-07-13T03:04:36;19.70;51.70
10644;DHT22;5370;50.132;8.626;2023-07-13T03:07:03;19.70;51.10
10644;DHT22;5370;50.132;8.626;2023-07-13T03:09:29;19.70;51.10
10644;DHT22;5370;50.132;8.626;2023-07-13T03:11:55;19.70;51.10
10644;DHT22;5370;50.132;8.626;2023-07-13T03:14:22;19.70;50.90
10644;DHT22;5370;50.132;8.626;2023-07-13T03:16:48;19.70;50.80
10644;DHT22;5370;50.132;8.626;2023-07-13T03:19:14;19.70;50.70
10644;DHT22;5370;50.132;8.626;2023-07-13T03:21:39;19.70;50.70
10644;DHT22;5370;50.132;8.626;2023-07-13T03:24:05;19.70;50.60
10644;DHT22;5370;50.132;8.626;2023-07-13T03:26:31;19.70;50.40
10644;DHT22;5370;50.132;8.626;2023-07-13T03:28:57;19.70;50.30
10644;DHT22;5370;50.132;8.626;2023-07-13T03:31:26;19.60;50.20
10644;DHT22;5370;50.132;8.626;2023-07-13T03:33:51;19.60;50.00
10644;DHT22;5370;50.132;8.626;2023-07-13T03:36:20;19.60;50.00
10644;DHT22;5370;50.132;8.626;2023-07-13T03:38:52;19.60;50.10
10644;DHT22;5370;50.132;8.626;2023-07-13T03:41:18;19.70;50.00
10644;DHT22;5370;50.132;8.626;2023-07-13T03:43:44;19.70;50.00
10644;DHT22;5370;50.132;8.626;2023-07-13T03:46:09;19.70;49.80
10644;DHT22;5370;50.132;8.626;2023-07-13T03:48:35;19.80;49.80
10644;DHT22;5370;50.132;8.626;2023-07-13T03:51:01;19.80;49.70
10644;DHT22;5370;50.132;8.626;2023-07-13T03:53:26;19.80;49.80
10644;DHT22;5370;50.132;8.626;2023-07-13T03:55:52;19.80;49.70
10644;DHT22;5370;50.132;8.626;2023-07-13T03:58:44;19.70;49.70
10644;DHT22;5370;50.132;8.626;2023-07-13T04:01:11;19.70;50.00
10644;DHT22;5370;50.132;8.626;2023-07-13T04:03:37;19.70;50.00
10644;DHT22;5370;50.132;8.626;2023-07-13T04:06:06;19.80;50.10
10644;DHT22;5370;50.132;8.626;2023-07-13T04:08:34;19.80;50.00
10644;DHT22;5370;50.132;8.626;2023-07-13T04:11:00;19.80;49.90
10644;DHT22;5370;50.132;8.626;2023-07-13T04:13:26;19.80;49.90
10644;DHT22;5370;50.132;8.626;2023-07-13T04:15:53;19.80;49.90
10644;DHT22;5370;50.132;8.626;2023-07-13T04:18:19;19.90;50.00
10644;DHT22;5370;50.132;8.626;2023-07-13T04:20:48;19.90;49.90
10644;DHT22;5370;50.132;8.626;2023-07-13T04:23:15;19.90;49.80
10644;DHT22;5370;50.132;8.626;2023-07-13T04:25:46;19.90;49.80
10644;DHT22;5370;50.132;8.626;2023-07-13T04:28:17;19.90;49.80
10644;DHT22;5370;50.132;8.626;2023-07-13T04:30:43;20.00;50.00
10644;DHT22;5370;50.132;8.626;2023-07-13T04:33:08;20.10;50.00
10644;DHT22;5370;50.132;8.626;2023-07-13T04:35:35;20.10;50.40
10644;DHT22;5370;50.132;8.626;2023-07-13T04:38:00;20.10;49.90
10644;DHT22;5370;50.132;8.626;2023-07-13T04:40:27;20.20;49.90
10644;DHT22;5370;50.132;8.626;2023-07-13T04:42:53;20.20;50.00
10644;DHT22;5370;50.132;8.626;2023-07-13T04:45:19;20.20;49.80
10644;DHT22;5370;50.132;8.626;2023-07-13T04:47:44;20.20;49.60
10644;DHT22;5370;50.132;8.626;2023-07-13T04:50:13;20.20;49.60
10644;DHT22;5370;50.132;8.626;2023-07-13T04:52:44;20.20;49.60
10644;DHT22;5370;50.132;8.626;2023-07-13T04:55:10;20.20;49.60
10644;DHT22;5370;50.132;8.626;2023-07-13T04:57:36;20.20;49.60
10644;DHT22;5370;50.132;8.626;2023-07-13T05:00:02;20.20;49.60
10644;DHT22;5370;50.132;8.626;2023-07-13T05:02:31;20.20;49.60
10644;DHT22;5370;50.132;8.626;2023-07-13T05:04:57;20.20;49.40
10644;DHT22;5370;50.132;8.626;2023-07-13T05:07:24;20.30;49.40
10644;DHT22;5370;50.132;8.626;2023-07-13T05:09:50;20.30;49.10
10644;DHT22;5370;50.132;8.626;2023-07-13T05:12:16;20.30;48.70
10644;DHT22;5370;50.132;8.626;2023-07-13T05:14:41;20.40;48.50
10644;DHT22;5370;50.132;8.626;2023-07-13T05:17:07;20.40;48.30
10644;DHT22;5370;50.132;8.626;2023-07-13T05:19:32;20.50;48.40
10644;DHT22;5370;50.132;8.626;2023-07-13T05:21:58;20.50;48.00
10644;DHT22;5370;50.132;8.626;2023-07-13T05:24:24;20.60;47.70
10644;DHT22;5370;50.132;8.626;2023-07-13T05:26:50;20.60;47.50
10644;DHT22;5370;50.132;8.626;2023-07-13T05:29:15;20.70;47.20
10644;DHT22;5370;50.132;8.626;2023-07-13T05:31:41;20.80;47.00
10644;DHT22;5370;50.132;8.626;2023-07-13T05:34:06;20.80;46.70
10644;DHT22;5370;50.132;8.626;2023-07-13T05:36:32;20.90;46.30
10644;DHT22;5370;50.132;8.626;2023-07-13T05:38:58;21.00;46.00
10644;DHT22;5370;50.132;8.626;2023-07-13T05:41:23;21.50;46.10
10644;DHT22;5370;50.132;8.626;2023-07-13T05:43:49;22.50;45.80
10644;DHT22;5370;50.132;8.626;2023-07-13T05:46:14;23.80;44.80
10644;DHT22;5370;50.132;8.626;2023-07-13T05:48:40;25.30;42.80
10644;DHT22;5370;50.132;8.626;2023-07-13T05:51:06;26.80;40.50
10644;DHT22;5370;50.132;8.626;2023-07-13T05:53:32;28.30;38.70
10644;DHT22;5370;50.132;8.626;2023-07-13T05:55:57;29.70;36.70
10644;DHT22;5370;50.132;8.626;2023-07-13T05:58:23;30.60;34.70
10644;DHT22;5370;50.132;8.626;2023-07-13T06:00:57;31.20;33.30
10644;DHT22;5370;50.132;8.626;2023-07-13T06:03:23;31.50;32.50
10644;DHT22;5370;50.132;8.626;2023-07-13T06:05:49;32.20;31.80
10644;DHT22;5370;50.132;8.626;2023-07-13T06:08:14;33.10;30.90
10644;DHT22;5370;50.132;8.626;2023-07-13T06:10:40;34.10;29.50
10644;DHT22;5370;50.132;8.626;2023-07-13T06:13:05;35.10;28.30
10644;DHT22;5370;50.132;8.626;2023-07-13T06:15:31;35.90;27.00
10644;DHT22;5370;50.132;8.626;2023-07-13T06:17:56;36.10;26.40
10644;DHT22;5370;50.132;8.626;2023-07-13T06:20:21;36.10;26.10
10644;DHT22;5370;50.132;8.626;2023-07-13T06:22:47;36.20;25.80
10644;DHT22;5370;50.132;8.626;2023-07-13T06:25:13;36.40;25.70
10644;DHT22;5370;50.132;8.626;2023-07-13T06:27:38;36.90;25.40
10644;DHT22;5370;50.132;8.626;2023-07-13T06:30:04;37.50;24.60
10644;DHT22;5370;50.132;8.626;2023-07-13T06:32:30;38.20;24.00
10644;DHT22;5370;50.132;8.626;2023-07-13T06:34:55;39.10;23.30
10644;DHT22;5370;50.132;8.626;2023-07-13T06:37:21;39.90;22.50
10644;DHT22;5370;50.132;8.626;2023-07-13T06:39:46;40.60;21.90
10644;DHT22;5370;50.132;8.626;2023-07-13T06:42:12;41.40;21.30
10644;DHT22;5370;50.132;8.626;2023-07-13T06:44:37;42.00;20.60
10644;DHT22;5370;50.132;8.626;2023-07-13T06:47:03;42.40;20.00
10644;DHT22;5370;50.132;8.626;2023-07-13T06:49:29;42.40;19.60
10644;DHT22;5370;50.132;8.626;2023-07-13T06:51:54;42.40;19.60
10644;DHT22;5370;50.132;8.626;2023-07-13T06:54:20;42.50;19.60
10644;DHT22;5370;50.132;8.626;2023-07-13T06:56:45;42.90;19.40
10644;DHT22;5370;50.132;8.626;2023-07-13T06:59:11;43.40;19.10
10644;DHT22;5370;50.132;8.626;2023-07-13T07:01:36;43.70;18.60
10644;DHT22;5370;50.132;8.626;2023-07-13T07:04:03;44.00;18.40
10644;DHT22;5370;50.132;8.626;2023-07-13T07:06:29;44.30;18.00
10644;DHT22;5370;50.132;8.626;2023-07-13T07:08:55;44.70;17.90
10644;DHT22;5370;50.132;8.626;2023-07-13T07:11:25;44.80;17.70
10644;DHT22;5370;50.132;8.626;2023-07-13T07:13:52;44.80;17.50
10644;DHT22;5370;50.132;8.626;2023-07-13T07:16:18;44.70;17.50
10644;DHT22;5370;50.132;8.626;2023-07-13T07:18:45;44.80;17.60
10644;DHT22;5370;50.132;8.626;2023-07-13T07:21:11;44.80;17.30
10644;DHT22;5370;50.132;8.626;2023-07-13T07:23:36;44.50;17.30
10644;DHT22;5370;50.132;8.626;2023-07-13T07:26:02;44.50;17.40
10644;DHT22;5370;50.132;8.626;2023-07-13T07:28:28;44.40;17.30
10644;DHT22;5370;50.132;8.626;2023-07-13T07:30:56;44.50;17.30
10644;DHT22;5370;50.132;8.626;2023-07-13T07:33:21;44.60;17.20
10644;DHT22;5370;50.132;8.626;2023-07-13T07:35:47;44.90;17.10
10644;DHT22;5370;50.132;8.626;2023-07-13T07:38:13;45.40;16.70
10644;DHT22;5370;50.132;8.626;2023-07-13T07:40:39;45.60;16.30
10644;DHT22;5370;50.132;8.626;2023-07-13T07:43:10;45.60;16.10
10644;DHT22;5370;50.132;8.626;2023-07-13T07:45:36;45.80;16.00
10644;DHT22;5370;50.132;8.626;2023-07-13T07:48:03;45.90;15.90
10644;DHT22;5370;50.132;8.626;2023-07-13T07:50:29;46.30;15.80
10644;DHT22;5370;50.132;8.626;2023-07-13T07:52:55;46.70;15.50
10644;DHT22;5370;50.132;8.626;2023-07-13T07:55:24;46.60;15.30
10644;DHT22;5370;50.132;8.626;2023-07-13T07:57:52;46.70;15.30
10644;DHT22;5370;50.132;8.626;2023-07-13T08:00:18;46.70;15.20
10644;DHT22;5370;50.132;8.626;2023-07-13T08:02:44;46.70;15.10
10644;DHT22;5370;50.132;8.626;2023-07-13T08:05:10;46.50;15.30
10644;DHT22;5370;50.132;8.626;2023-07-13T08:07:37;46.50;15.30
10644;DHT22;5370;50.132;8.626;2023-07-13T08:10:04;46.20;15.10
10644;DHT22;5370;50.132;8.626;2023-07-13T08:12:29;45.70;15.40
10644;DHT22;5370;50.132;8.626;2023-07-13T08:14:55;44.90;15.60
10644;DHT22;5370;50.132;8.626;2023-07-13T08:17:24;44.20;15.90
10644;DHT22;5370;50.132;8.626;2023-07-13T08:19:50;43.70;16.40
10644;DHT22;5370;50.132;8.626;2023-07-13T08:22:16;43.70;16.70
10644;DHT22;5370;50.132;8.626;2023-07-13T08:24:42;44.00;16.50
10644;DHT22;5370;50.132;8.626;2023-07-13T08:27:11;44.40;16.20
10644;DHT22;5370;50.132;8.626;2023-07-13T08:29:37;45.10;15.80
10644;DHT22;5370;50.132;8.626;2023-07-13T08:32:05;45.70;15.70
10644;DHT22;5370;50.132;8.626;2023-07-13T08:34:31;45.70;15.70
10644;DHT22;5370;50.132;8.626;2023-07-13T08:36:57;45.40;15.60
10644;DHT22;5370;50.132;8.626;2023-07-13T08:39:22;45.20;15.70
10644;DHT22;5370;50.132;8.626;2023-07-13T08:41:51;44.80;15.80
10644;DHT22;5370;50.132;8.626;2023-07-13T08:44:30;43.80;16.10
10644;DHT22;5370;50.132;8.626;2023-07-13T08:47:01;42.60;16.80
10644;DHT22;5370;50.132;8.626;2023-07-13T08:49:27;41.80;17.40
10644;DHT22;5370;50.132;8.626;2023-07-13T08:51:55;41.20;17.60
10644;DHT22;5370;50.132;8.626;2023-07-13T08:54:31;40.30;18.10
10644;DHT22;5370;50.132;8.626;2023-07-13T08:56:57;39.20;18.70
10644;DHT22;5370;50.132;8.626;2023-07-13T08:59:27;38.10;19.40
10644;DHT22;5370;50.132;8.626;2023-07-13T09:03:12;37.10;20.20
10644;DHT22;5370;50.132;8.626;2023-07-13T09:05:29;36.00;21.00
10644;DHT22;5370;50.132;8.626;2023-07-13T09:08:23;34.80;21.90
10644;DHT22;5370;50.132;8.626;2023-07-13T09:11:07;33.40;23.00
10644;DHT22;5370;50.132;8.626;2023-07-13T09:14:06;32.50;23.80
10644;DHT22;5370;50.132;8.626;2023-07-13T09:16:27;31.70;24.80
10644;DHT22;5370;50.132;8.626;2023-07-13T09:18:59;31.20;25.40
10644;DHT22;5370;50.132;8.626;2023-07-13T09:21:32;30.70;25.60
10644;DHT22;5370;50.132;8.626;2023-07-13T09:26:48;30.00;26.60
10644;DHT22;5370;50.132;8.626;2023-07-13T09:29:28;29.80;26.80
10644;DHT22;5370;50.132;8.626;2023-07-13T09:31:57;29.70;27.30
10644;DHT22;5370;50.132;8.626;2023-07-13T09:34:25;29.60;27.30
10644;DHT22;5370;50.132;8.626;2023-07-13T09:36:50;29.50;27.30
10644;DHT22;5370;50.132;8.626;2023-07-13T09:39:27;29.40;27.60
10644;DHT22;5370;50.132;8.626;2023-07-13T09:44:35;29.10;28.10
10644;DHT22;5370;50.132;8.626;2023-07-13T09:47:01;29.10;28.10
10644;DHT22;5370;50.132;8.626;2023-07-13T09:49:35;29.10;27.90
10644;DHT22;5370;50.132;8.626;2023-07-13T09:52:11;29.00;28.10
10644;DHT22;5370;50.132;8.626;2023-07-13T09:54:37;28.90;28.20
10644;DHT22;5370;50.132;8.626;2023-07-13T09:57:12;28.80;28.50
10644;DHT22;5370;50.132;8.626;2023-07-13T09:59:44;28.80;28.50
10644;DHT22;5370;50.132;8.626;2023-07-13T10:05:03;29.00;28.50
10644;DHT22;5370;50.132;8.626;2023-07-13T10:07:30;29.10;28.30
10644;DHT22;5370;50.132;8.626;2023-07-13T10:09:58;29.20;28.20
10644;DHT22;5370;50.132;8.626;2023-07-13T10:12:27;29.20;28.10
10644;DHT22;5370;50.132;8.626;2023-07-13T10:14:56;29.30;28.30
10644;DHT22;5370;50.132;8.626;2023-07-13T10:17:30;29.40;28.30
10644;DHT22;5370;50.132;8.626;2023-07-13T10:20:03;29.50;28.30
10644;DHT22;5370;50.132;8.626;2023-07-13T10:22:50;29.60;28.20
10644;DHT22;5370;50.132;8.626;2023-07-13T10:25:23;29.70;28.50
10644;DHT22;5370;50.132;8.626;2023-07-13T10:27:52;29.70;28.00
10644;DHT22;5370;50.132;8.626;2023-07-13T10:30:19;29.80;28.10
10644;DHT22;5370;50.132;8.626;2023-07-13T10:32:46;29.90;28.00
10644;DHT22;5370;50.132;8.626;2023-07-13T10:35:14;29.90;27.80
10644;DHT22;5370;50.132;8.626;2023-07-13T10:38:01;29.70;27.80
10644;DHT22;5370;50.132;8.626;2023-07-13T10:40:38;29.60;28.20
10644;DHT22;5370;50.132;8.626;2023-07-13T10:43:09;29.50;28.30
10644;DHT22;5370;50.132;8.626;2023-07-13T10:45:37;29.60;28.40
10644;DHT22;5370;50.132;8.626;2023-07-13T10:48:04;29.80;28.40
10644;DHT22;5370;50.132;8.626;2023-07-13T10:50:31;29.90;28.20
10644;DHT22;5370;50.132;8.626;2023-07-13T10:53:21;29.90;27.70
10644;DHT22;5370;50.132;8.626;2023-07-13T10:58:21;29.90;27.30
10644;DHT22;5370;50.132;8.626;2023-07-13T11:03:32;29.80;27.10
10644;DHT22;5370;50.132;8.626;2023-07-13T11:06:12;29.70;27.30
10644;DHT22;5370;50.132;8.626;2023-07-13T11:18:52;29.20;27.40
10644;DHT22;5370;50.132;8.626;2023-07-13T11:21:25;29.20;27.60
10644;DHT22;5370;50.132;8.626;2023-07-13T11:23:54;29.30;27.70
10644;DHT22;5370;50.132;8.626;2023-07-13T11:26:43;29.50;27.70
10644;DHT22;5370;50.132;8.626;2023-07-13T11:31:57;30.00;27.20
10644;DHT22;5370;50.132;8.626;2023-07-13T11:34:31;30.10;27.00
10644;DHT22;5370;50.132;8.626;2023-07-13T11:36:59;30.30;27.10
10644;DHT22;5370;50.132;8.626;2023-07-13T11:39:34;30.50;26.80
10644;DHT22;5370;50.132;8.626;2023-07-13T11:42:07;30.80;26.60
10644;DHT22;5370;50.132;8.626;2023-07-13T11:44:34;30.90;26.00
10644;DHT22;5370;50.132;8.626;2023-07-13T11:47:08;30.90;26.10
10644;DHT22;5370;50.132;8.626;2023-07-13T11:49:42;31.00;26.20
10644;DHT22;5370;50.132;8.626;2023-07-13T11:52:14;31.20;26.10
10644;DHT22;5370;50.132;8.626;2023-07-13T11:57:30;31.10;26.10
10644;DHT22;5370;50.132;8.626;2023-07-13T11:59:58;31.00;25.90
10644;DHT22;5370;50.132;8.626;2023-07-13T12:02:34;30.80;25.70
10644;DHT22;5370;50.132;8.626;2023-07-13T12:05:03;30.70;26.00
10644;DHT22;5370;50.132;8.626;2023-07-13T12:07:32;30.60;26.00
10644;DHT22;5370;50.132;8.626;2023-07-13T12:10:03;30.30;26.10
10644;DHT22;5370;50.132;8.626;2023-07-13T12:12:36;30.10;26.40
10644;DHT22;5370;50.132;8.626;2023-07-13T12:15:07;30.10;26.60
10644;DHT22;5370;50.132;8.626;2023-07-13T12:17:35;30.20;26.70
10644;DHT22;5370;50.132;8.626;2023-07-13T12:20:23;30.10;26.70
10644;DHT22;5370;50.132;8.626;2023-07-13T12:22:50;30.00;26.80
10644;DHT22;5370;50.132;8.626;2023-07-13T12:25:17;29.90;27.10
10644;DHT22;5370;50.132;8.626;2023-07-13T12:27:50;29.80;27.10
10644;DHT22;5370;50.132;8.626;2023-07-13T12:30:31;29.80;27.30
10644;DHT22;5370;50.132;8.626;2023-07-13T12:33:01;29.80;27.40
10644;DHT22;5370;50.132;8.626;2023-07-13T12:35:30;29.80;27.30
10644;DHT22;5370;50.132;8.626;2023-07-13T12:37:59;29.80;27.50
10644;DHT22;5370;50.132;8.626;2023-07-13T12:40:31;29.80;27.50
10644;DHT22;5370;50.132;8.626;2023-07-13T12:42:58;29.80;27.30
10644;DHT22;5370;50.132;8.626;2023-07-13T12:45:26;29.80;27.40
10644;DHT22;5370;50.132;8.626;2023-07-13T12:47:59;29.80;27.40
10644;DHT22;5370;50.132;8.626;2023-07-13T12:50:38;29.70;27.40
10644;DHT22;5370;50.132;8.626;2023-07-13T12:53:13;29.50;27.40
10644;DHT22;5370;50.132;8.626;2023-07-13T12:55:50;29.40;27.70
10644;DHT22;5370;50.132;8.626;2023-07-13T12:58:25;29.30;27.80
10644;DHT22;5370;50.132;8.626;2023-07-13T13:00:54;29.30;27.90
10644;DHT22;5370;50.132;8.626;2023-07-13T13:03:30;29.20;27.90
10644;DHT22;5370;50.132;8.626;2023-07-13T13:06:00;29.20;28.10
10644;DHT22;5370;50.132;8.626;2023-07-13T13:08:29;29.10;28.10
10644;DHT22;5370;50.132;8.626;2023-07-13T13:10:55;29.10;28.10
10644;DHT22;5370;50.132;8.626;2023-07-13T13:13:20;29.10;28.10
10644;DHT22;5370;50.132;8.626;2023-07-13T13:15:46;29.00;28.00
10644;DHT22;5370;50.132;8.626;2023-07-13T13:18:16;29.00;28.00
10644;DHT22;5370;50.132;8.626;2023-07-13T13:20:43;29.10;28.10
10644;DHT22;5370;50.132;8.626;2023-07-13T13:23:13;29.20;28.00
10644;DHT22;5370;50.132;8.626;2023-07-13T13:25:43;29.10;27.80
10644;DHT22;5370;50.132;8.626;2023-07-13T13:28:14;29.10;27.90
10644;DHT22;5370;50.132;8.626;2023-07-13T13:30:40;29.10;27.90
10644;DHT22;5370;50.132;8.626;2023-07-13T13:33:10;29.20;27.80
10644;DHT22;5370;50.132;8.626;2023-07-13T13:35:37;29.20;27.60
10644;DHT22;5370;50.132;8.626;2023-07-13T13:38:10;29.20;27.60
10644;DHT22;5370;50.132;8.626;2023-07-13T13:40:36;29.30;27.60
10644;DHT22;5370;50.132;8.626;2023-07-13T13:43:02;29.20;27.60
10644;DHT22;5370;50.132;8.626;2023-07-13T13:45:27;29.30;27.80
10644;DHT22;5370;50.132;8.626;2023-07-13T13:47:53;29.20;27.90
10644;DHT22;5370;50.132;8.626;2023-07-13T13:50:21;29.20;28.00
10644;DHT22;5370;50.132;8.626;2023-07-13T13:52:50;29.20;27.90
10644;DHT22;5370;50.132;8.626;2023-07-13T13:55:17;29.20;27.90
10644;DHT22;5370;50.132;8.626;2023-07-13T13:57:45;29.30;28.10
10644;DHT22;5370;50.132;8.626;2023-07-13T14:00:11;29.40;28.00
10644;DHT22;5370;50.132;8.626;2023-07-13T14:02:41;29.50;27.80
10644;DHT22;5370;50.132;8.626;2023-07-13T14:05:12;29.50;27.80
10644;DHT22;5370;50.132;8.626;2023-07-13T14:07:38;29.60;27.90
10644;DHT22;5370;50.132;8.626;2023-07-13T14:10:14;29.70;27.80
10644;DHT22;5370;50.132;8.626;2023-07-13T14:12:44;29.70;27.70
10644;DHT22;5370;50.132;8.626;2023-07-13T14:15:25;29.70;27.80
10644;DHT22;5370;50.132;8.626;2023-07-13T14:17:51;29.80;27.80
10644;DHT22;5370;50.132;8.626;2023-07-13T14:20:19;29.80;27.70
10644;DHT22;5370;50.132;8.626;2023-07-13T14:22:45;29.80;27.90
10644;DHT22;5370;50.132;8.626;2023-07-13T14:25:12;29.70;28.30
10644;DHT22;5370;50.132;8.626;2023-07-13T14:27:38;29.60;28.50
10644;DHT22;5370;50.132;8.626;2023-07-13T14:30:16;29.50;28.60
10644;DHT22;5370;50.132;8.626;2023-07-13T14:32:42;29.30;28.70
10644;DHT22;5370;50.132;8.626;2023-07-13T14:35:11;29.00;28.80
10644;DHT22;5370;50.132;8.626;2023-07-13T14:37:38;28.80;29.10
10644;DHT22;5370;50.132;8.626;2023-07-13T14:40:15;28.60;29.30
10644;DHT22;5370;50.132;8.626;2023-07-13T14:42:41;28.50;30.00
10644;DHT22;5370;50.132;8.626;2023-07-13T14:45:13;28.40;29.50
10644;DHT22;5370;50.132;8.626;2023-07-13T14:47:38;28.40;29.70
10644;DHT22;5370;50.132;8.626;2023-07-13T14:50:04;28.40;29.70
10644;DHT22;5370;50.132;8.626;2023-07-13T14:52:30;28.50;29.80
10644;DHT22;5370;50.132;8.626;2023-07-13T14:54:56;28.70;29.90
10644;DHT22;5370;50.132;8.626;2023-07-13T14:57:21;28.90;29.60
10644;DHT22;5370;50.132;8.626;2023-07-13T14:59:47;29.00;29.30
10644;DHT22;5370;50.132;8.626;2023-07-13T15:04:46;29.20;29.20
10644;DHT22;5370;50.132;8.626;2023-07-13T15:07:12;29.20;29.10
10644;DHT22;5370;50.132;8.626;2023-07-13T15:09:40;29.10;28.90
10644;DHT22;5370;50.132;8.626;2023-07-13T15:12:06;29.00;28.90
10644;DHT22;5370;50.132;8.626;2023-07-13T15:14:32;28.80;29.00
10644;DHT22;5370;50.132;8.626;2023-07-13T15:16:58;28.60;29.10
10644;DHT22;5370;50.132;8.626;2023-07-13T15:19:24;28.30;29.40
10644;DHT22;5370;50.132;8.626;2023-07-13T15:21:50;28.10;29.60
10644;DHT22;5370;50.132;8.626;2023-07-13T15:24:17;28.00;29.70
10644;DHT22;5370;50.132;8.626;2023-07-13T15:26:43;28.00;29.90
10644;DHT22;5370;50.132;8.626;2023-07-13T15:29:12;28.00;29.90
10644;DHT22;5370;50.132;8.626;2023-07-13T15:31:37;28.00;30.00
10644;DHT22;5370;50.132;8.626;2023-07-13T15:34:11;28.00;29.90
10644;DHT22;5370;50.132;8.626;2023-07-13T15:36:37;28.00;30.00
10644;DHT22;5370;50.132;8.626;2023-07-13T15:39:03;28.00;29.70
10644;DHT22;5370;50.132;8.626;2023-07-13T15:41:28;28.00;29.80
10644;DHT22;5370;50.132;8.626;2023-07-13T15:43:56;28.00;29.70
10644;DHT22;5370;50.132;8.626;2023-07-13T15:46:26;28.00;29.60
10644;DHT22;5370;50.132;8.626;2023-07-13T15:48:53;28.00;29.40
10644;DHT22;5370;50.132;8.626;2023-07-13T15:51:24;27.80;29.40
10644;DHT22;5370;50.132;8.626;2023-07-13T15:53:53;27.70;29.60
10644;DHT22;5370;50.132;8.626;2023-07-13T15:56:28;27.70;29.80
10644;DHT22;5370;50.132;8.626;2023-07-13T15:58:55;27.60;29.80
10644;DHT22;5370;50.132;8.626;2023-07-13T16:01:21;27.60;30.00
10644;DHT22;5370;50.132;8.626;2023-07-13T16:03:47;27.60;30.00
10644;DHT22;5370;50.132;8.626;2023-07-13T16:06:22;27.60;30.00
10644;DHT22;5370;50.132;8.626;2023-07-13T16:08:51;27.70;30.40
10644;DHT22;5370;50.132;8.626;2023-07-13T16:11:24;27.80;30.30
10644;DHT22;5370;50.132;8.626;2023-07-13T16:13:50;27.90;30.30
10644;DHT22;5370;50.132;8.626;2023-07-13T16:16:26;28.00;30.10
10644;DHT22;5370;50.132;8.626;2023-07-13T16:18:54;28.10;30.00
10644;DHT22;5370;50.132;8.626;2023-07-13T16:21:23;28.10;29.90
10644;DHT22;5370;50.132;8.626;2023-07-13T16:23:50;28.10;29.70
10644;DHT22;5370;50.132;8.626;2023-07-13T16:28:48;28.30;29.50